sensor_id;sensor_type;location;lat;lon;timestamp;pressure;altitude;pressure_sealevel;temperature;humidity
50702;BME280;36670;50.094;8.496;2023-07-20T00:02:20;100070.25;;;24.93;39.36
50702;BME280;36670;50.094;8.496;2023-07-20T00:04:46;100083.69;;;24.71;40.17
50702;BME280;36670;50.094;8.496;2023-07-20T00:07:11;100086.38;;;24.43;40.26
50702;BME280;36670;50.094;8.496;2023-07-20T00:09:36;100081.94;;;24.79;40.09
50702;BME280;36670;50.094;8.496;2023-07-20T00:12:02;100083.44;;;24.89;39.48
50702;BME280;36670;50.094;8.496;2023-07-20T00:14:27;100083.88;;;24.17;40.13
50702;BME280;36670;50.094;8.496;2023-07-20T00:16:55;100081.19;;;24.45;40.17
50702;BME280;36670;50.094;8.496;2023-07-20T00:19:25;100081.31;;;24.49;40.33
50702;BME280;36670;50.094;8.496;2023-07-20T00:21:51;100082.66;;;24.64;40.16
50702;BME280;36670;50.094;8.496;2023-07-20T00:24:16;100084.41;;;24.68;40.42
50702;BME280;36670;50.094;8.496;2023-07-20T00:26:42;100076.97;;;24.51;39.92
50702;BME280;36670;50.094;8.496;2023-07-20T00:29:07;100074.03;;;24.60;40.10
50702;BME280;36670;50.094;8.496;2023-07-20T00:31:32;100085.22;;;24.69;40.23
50702;BME280;36670;50.094;8.496;2023-07-20T00:34:00;100084.38;;;24.19;40.67
50702;BME280;36670;50.094;8.496;2023-07-20T00:36:25;100081.31;;;24.36;40.75
50702;BME280;36670;50.094;8.496;2023-07-20T00:38:50;100091.53;;;24.41;41.36
50702;BME280;36670;50.094;8.496;2023-07-20T00:41:16;100088.03;;;24.44;40.96
50702;BME280;36670;50.094;8.496;2023-07-20T00:43:41;100089.69;;;24.82;40.20
50702;BME280;36670;50.094;8.496;2023-07-20T00:46:08;100097.00;;;24.71;40.36
50702;BME280;36670;50.094;8.496;2023-07-20T00:48:34;100088.84;;;24.45;40.15
50702;BME280;36670;50.094;8.496;2023-07-20T00:51:00;100086.63;;;24.63;40.30
50702;BME280;36670;50.094;8.496;2023-07-20T00:53:26;100095.91;;;24.51;40.95
50702;BME280;36670;50.094;8.496;2023-07-20T00:55:52;100100.94;;;24.45;40.92
50702;BME280;36670;50.094;8.496;2023-07-20T00:58:17;100096.59;;;24.35;41.25
50702;BME280;36670;50.094;8.496;2023-07-20T01:00:43;100100.34;;;24.52;40.81
50702;BME280;36670;50.094;8.496;2023-07-20T01:03:08;100093.66;;;24.44;41.03
50702;BME280;36670;50.094;8.496;2023-07-20T01:05:56;100103.91;;;24.49;41.22
50702;BME280;36670;50.094;8.496;2023-07-20T01:09:31;100101.19;;;24.40;41.54
50702;BME280;36670;50.094;8.496;2023-07-20T01:11:47;100101.44;;;24.47;40.97
50702;BME280;36670;50.094;8.496;2023-07-20T01:14:15;100095.66;;;24.56;40.83
50702;BME280;36670;50.094;8.496;2023-07-20T01:16:41;100091.53;;;24.41;40.96
50702;BME280;36670;50.094;8.496;2023-07-20T01:19:07;100095.78;;;24.35;40.76
50702;BME280;36670;50.094;8.496;2023-07-20T01:21:40;100086.38;;;24.31;40.78
50702;BME280;36670;50.094;8.496;2023-07-20T01:30:08;100101.34;;;23.98;41.69
50702;BME280;36670;50.094;8.496;2023-07-20T01:32:40;100106.66;;;23.78;41.84
50702;BME280;36670;50.094;8.496;2023-07-20T01:35:08;100097.03;;;24.13;41.23
50702;BME280;36670;50.094;8.496;2023-07-20T01:37:35;100099.09;;;23.91;41.36
50702;BME280;36670;50.094;8.496;2023-07-20T01:40:02;100097.69;;;23.97;41.49
50702;BME280;36670;50.094;8.496;2023-07-20T01:42:28;100105.56;;;23.92;41.38
50702;BME280;36670;50.094;8.496;2023-07-20T01:44:54;100101.09;;;23.91;41.65
50702;BME280;36670;50.094;8.496;2023-07-20T01:47:19;100099.50;;;23.81;41.97
50702;BME280;36670;50.094;8.496;2023-07-20T01:49:45;100099.38;;;23.77;41.89
50702;BME280;36670;50.094;8.496;2023-07-20T01:52:10;100089.03;;;23.69;42.23
50702;BME280;36670;50.094;8.496;2023-07-20T01:54:35;100092.09;;;23.76;42.33
50702;BME280;36670;50.094;8.496;2023-07-20T01:57:01;100094.56;;;23.78;41.72
50702;BME280;36670;50.094;8.496;2023-07-20T01:59:26;100097.13;;;23.71;42.37
50702;BME280;36670;50.094;8.496;2023-07-20T02:01:52;100103.75;;;23.87;41.80
50702;BME280;36670;50.094;8.496;2023-07-20T02:04:17;100096.06;;;23.96;41.77
50702;BME280;36670;50.094;8.496;2023-07-20T02:06:42;100100.66;;;23.80;42.13
50702;BME280;36670;50.094;8.496;2023-07-20T02:09:08;100095.47;;;23.69;42.50
50702;BME280;36670;50.094;8.496;2023-07-20T02:11:33;100103.03;;;23.78;42.60
50702;BME280;36670;50.094;8.496;2023-07-20T02:13:58;100109.41;;;23.87;42.00
50702;BME280;36670;50.094;8.496;2023-07-20T02:16:24;100099.50;;;23.81;42.73
50702;BME280;36670;50.094;8.496;2023-07-20T02:18:49;100091.56;;;23.62;42.21
50702;BME280;36670;50.094;8.496;2023-07-20T02:21:14;100115.03;;;23.54;42.52
50702;BME280;36670;50.094;8.496;2023-07-20T02:23:39;100101.69;;;23.42;42.68
50702;BME280;36670;50.094;8.496;2023-07-20T02:26:05;100103.47;;;23.46;42.94
50702;BME280;36670;50.094;8.496;2023-07-20T02:28:30;100100.66;;;23.67;43.17
50702;BME280;36670;50.094;8.496;2023-07-20T02:30:55;100104.56;;;23.54;42.82
50702;BME280;36670;50.094;8.496;2023-07-20T02:33:21;100101.09;;;23.36;42.75
50702;BME280;36670;50.094;8.496;2023-07-20T02:35:46;100099.13;;;23.49;43.04
50702;BME280;36670;50.094;8.496;2023-07-20T02:38:12;100104.84;;;23.40;43.28
50702;BME280;36670;50.094;8.496;2023-07-20T02:40:37;100104.50;;;23.42;43.32
50702;BME280;36670;50.094;8.496;2023-07-20T02:43:02;100108.41;;;23.28;43.52
50702;BME280;36670;50.094;8.496;2023-07-20T02:45:27;100107.34;;;23.21;43.37
50702;BME280;36670;50.094;8.496;2023-07-20T02:47:53;100109.06;;;23.34;43.55
50702;BME280;36670;50.094;8.496;2023-07-20T02:50:18;100104.16;;;23.43;43.58
50702;BME280;36670;50.094;8.496;2023-07-20T02:52:43;100098.19;;;23.45;43.82
50702;BME280;36670;50.094;8.496;2023-07-20T02:55:09;100107.03;;;23.56;43.20
50702;BME280;36670;50.094;8.496;2023-07-20T02:57:34;100106.22;;;23.55;42.99
50702;BME280;36670;50.094;8.496;2023-07-20T02:59:59;100113.50;;;23.35;42.97
50702;BME280;36670;50.094;8.496;2023-07-20T03:02:24;100118.53;;;22.78;44.04
50702;BME280;36670;50.094;8.496;2023-07-20T03:04:50;100119.19;;;23.05;44.19
50702;BME280;36670;50.094;8.496;2023-07-20T03:07:15;100122.69;;;23.02;44.09
50702;BME280;36670;50.094;8.496;2023-07-20T03:09:41;100119.50;;;23.12;43.59
50702;BME280;36670;50.094;8.496;2023-07-20T03:12:07;100114.09;;;22.98;44.30
50702;BME280;36670;50.094;8.496;2023-07-20T03:14:32;100119.09;;;22.93;44.19
50702;BME280;36670;50.094;8.496;2023-07-20T03:16:58;100114.88;;;22.78;44.27
50702;BME280;36670;50.094;8.496;2023-07-20T03:19:23;100116.59;;;22.70;44.82
50702;BME280;36670;50.094;8.496;2023-07-20T03:21:48;100116.13;;;22.89;44.36
50702;BME280;36670;50.094;8.496;2023-07-20T03:24:13;100111.72;;;22.79;44.68
50702;BME280;36670;50.094;8.496;2023-07-20T03:26:39;100109.06;;;23.04;44.30
50702;BME280;36670;50.094;8.496;2023-07-20T03:29:05;100101.94;;;23.07;44.12
50702;BME280;36670;50.094;8.496;2023-07-20T03:31:31;100109.34;;;23.20;43.97
50702;BME280;36670;50.094;8.496;2023-07-20T03:33:57;100112.28;;;23.24;43.68
50702;BME280;36670;50.094;8.496;2023-07-20T03:36:22;100119.50;;;23.12;43.88
50702;BME280;36670;50.094;8.496;2023-07-20T03:38:47;100120.44;;;23.16;43.62
50702;BME280;36670;50.094;8.496;2023-07-20T03:41:13;100112.59;;;23.01;43.98
50702;BME280;36670;50.094;8.496;2023-07-20T03:43:40;100113.53;;;22.84;44.80
50702;BME280;36670;50.094;8.496;2023-07-20T03:46:06;100115.72;;;22.78;44.34
50702;BME280;36670;50.094;8.496;2023-07-20T03:48:32;100117.31;;;22.88;43.89
50702;BME280;36670;50.094;8.496;2023-07-20T03:50:58;100116.47;;;22.88;44.33
50702;BME280;36670;50.094;8.496;2023-07-20T03:53:23;100115.25;;;22.97;43.96
50702;BME280;36670;50.094;8.496;2023-07-20T03:55:50;100114.72;;;23.04;44.45
50702;BME280;36670;50.094;8.496;2023-07-20T03:58:17;100121.81;;;22.80;44.77
50702;BME280;36670;50.094;8.496;2023-07-20T04:00:46;100116.75;;;22.95;44.18
50702;BME280;36670;50.094;8.496;2023-07-20T04:03:13;100120.94;;;22.89;44.15
50702;BME280;36670;50.094;8.496;2023-07-20T04:05:38;100122.56;;;22.60;44.92
50702;BME280;36670;50.094;8.496;2023-07-20T04:08:04;100121.03;;;22.71;45.33
50702;BME280;36670;50.094;8.496;2023-07-20T04:10:29;100117.59;;;22.95;44.18
50702;BME280;36670;50.094;8.496;2023-07-20T04:12:54;100121.09;;;22.92;45.11
50702;BME280;36670;50.094;8.496;2023-07-20T04:15:20;100121.66;;;23.07;43.76
50702;BME280;36670;50.094;8.496;2023-07-20T04:17:45;100122.78;;;23.14;44.07
50702;BME280;36670;50.094;8.496;2023-07-20T04:20:11;100125.81;;;23.00;44.13
50702;BME280;36670;50.094;8.496;2023-07-20T04:22:36;100126.25;;;23.20;43.59
50702;BME280;36670;50.094;8.496;2023-07-20T04:25:03;100130.06;;;23.15;44.22
50702;BME280;36670;50.094;8.496;2023-07-20T04:27:28;100138.66;;;23.10;44.85
50702;BME280;36670;50.094;8.496;2023-07-20T04:29:54;100132.25;;;23.31;44.51
50702;BME280;36670;50.094;8.496;2023-07-20T04:32:19;100136.13;;;23.47;44.30
50702;BME280;36670;50.094;8.496;2023-07-20T04:34:44;100133.00;;;23.61;43.98
50702;BME280;36670;50.094;8.496;2023-07-20T04:37:10;100134.06;;;23.35;44.94
50702;BME280;36670;50.094;8.496;2023-07-20T04:39:35;100136.75;;;23.86;45.04
50702;BME280;36670;50.094;8.496;2023-07-20T04:42:00;100142.88;;;24.10;43.94
50702;BME280;36670;50.094;8.496;2023-07-20T04:44:26;100141.44;;;24.86;42.65
50702;BME280;36670;50.094;8.496;2023-07-20T04:46:51;100138.63;;;24.99;41.96
50702;BME280;36670;50.094;8.496;2023-07-20T04:49:16;100137.56;;;24.66;42.31
50702;BME280;36670;50.094;8.496;2023-07-20T04:51:42;100144.56;;;24.48;41.76
50702;BME280;36670;50.094;8.496;2023-07-20T04:54:07;100138.91;;;24.23;42.41
50702;BME280;36670;50.094;8.496;2023-07-20T04:56:32;100140.28;;;24.17;42.21
50702;BME280;36670;50.094;8.496;2023-07-20T04:58:58;100137.59;;;24.20;43.59
50702;BME280;36670;50.094;8.496;2023-07-20T05:01:23;100149.19;;;24.90;42.95
50702;BME280;36670;50.094;8.496;2023-07-20T05:03:49;100139.47;;;25.52;41.94
50702;BME280;36670;50.094;8.496;2023-07-20T05:06:15;100140.53;;;26.49;40.50
50702;BME280;36670;50.094;8.496;2023-07-20T05:08:40;100140.97;;;27.50;38.60
50702;BME280;36670;50.094;8.496;2023-07-20T05:11:06;100144.22;;;27.91;38.07
50702;BME280;36670;50.094;8.496;2023-07-20T05:13:32;100148.56;;;28.71;37.11
50702;BME280;36670;50.094;8.496;2023-07-20T05:15:57;100146.47;;;29.21;36.10
50702;BME280;36670;50.094;8.496;2023-07-20T05:18:23;100146.81;;;29.73;35.40
50702;BME280;36670;50.094;8.496;2023-07-20T05:20:49;100132.13;;;30.43;34.06
50702;BME280;36670;50.094;8.496;2023-07-20T05:23:15;100144.06;;;31.04;33.07
50702;BME280;36670;50.094;8.496;2023-07-20T05:25:41;100143.69;;;31.06;33.10
50702;BME280;36670;50.094;8.496;2023-07-20T05:28:06;100138.25;;;31.56;32.31
50702;BME280;36670;50.094;8.496;2023-07-20T05:30:32;100135.31;;;31.35;31.86
50702;BME280;36670;50.094;8.496;2023-07-20T05:32:57;100141.72;;;32.09;31.18
50702;BME280;36670;50.094;8.496;2023-07-20T05:35:22;100130.38;;;32.66;30.48
50702;BME280;36670;50.094;8.496;2023-07-20T05:37:48;100135.25;;;32.44;29.99
50702;BME280;36670;50.094;8.496;2023-07-20T05:40:14;100141.81;;;33.03;29.70
50702;BME280;36670;50.094;8.496;2023-07-20T05:42:43;100145.06;;;33.12;29.42
50702;BME280;36670;50.094;8.496;2023-07-20T05:45:09;100142.66;;;32.89;29.48
50702;BME280;36670;50.094;8.496;2023-07-20T05:47:34;100143.03;;;33.09;29.30
50702;BME280;36670;50.094;8.496;2023-07-20T05:50:00;100145.78;;;33.56;29.14
50702;BME280;36670;50.094;8.496;2023-07-20T05:52:25;100145.84;;;33.45;28.75
50702;BME280;36670;50.094;8.496;2023-07-20T05:54:51;100158.09;;;34.38;27.76
50702;BME280;36670;50.094;8.496;2023-07-20T05:57:16;100148.66;;;34.93;27.29
50702;BME280;36670;50.094;8.496;2023-07-20T05:59:43;100154.66;;;35.10;27.05
50702;BME280;36670;50.094;8.496;2023-07-20T06:02:10;100156.97;;;34.77;27.05
50702;BME280;36670;50.094;8.496;2023-07-20T06:04:35;100176.38;;;34.58;27.28
50702;BME280;36670;50.094;8.496;2023-07-20T06:07:01;100156.47;;;34.93;26.52
50702;BME280;36670;50.094;8.496;2023-07-20T06:09:26;100166.31;;;34.32;26.30
50702;BME280;36670;50.094;8.496;2023-07-20T06:11:52;100167.19;;;32.75;27.82
50702;BME280;36670;50.094;8.496;2023-07-20T06:14:18;100170.53;;;31.64;28.72
50702;BME280;36670;50.094;8.496;2023-07-20T06:16:43;100188.06;;;30.58;29.89
50702;BME280;36670;50.094;8.496;2023-07-20T06:19:09;100187.13;;;29.79;30.83
50702;BME280;36670;50.094;8.496;2023-07-20T06:21:37;100187.59;;;29.01;32.62
50702;BME280;36670;50.094;8.496;2023-07-20T06:24:02;100183.19;;;28.57;33.16
50702;BME280;36670;50.094;8.496;2023-07-20T06:26:28;100186.78;;;27.91;33.83
50702;BME280;36670;50.094;8.496;2023-07-20T06:28:55;100186.31;;;27.50;35.09
50702;BME280;36670;50.094;8.496;2023-07-20T06:31:21;100194.50;;;27.55;35.19
50702;BME280;36670;50.094;8.496;2023-07-20T06:33:46;100191.84;;;27.63;35.30
50702;BME280;36670;50.094;8.496;2023-07-20T06:36:11;100195.75;;;27.38;35.86
50702;BME280;36670;50.094;8.496;2023-07-20T06:38:37;100199.25;;;27.67;35.79
50702;BME280;36670;50.094;8.496;2023-07-20T06:41:02;100196.84;;;27.34;36.66
50702;BME280;36670;50.094;8.496;2023-07-20T06:43:27;100191.91;;;27.31;36.91
50702;BME280;36670;50.094;8.496;2023-07-20T06:45:53;100190.19;;;27.42;36.51
50702;BME280;36670;50.094;8.496;2023-07-20T06:48:19;100193.56;;;27.67;36.81
50702;BME280;36670;50.094;8.496;2023-07-20T06:50:44;100193.72;;;27.55;36.38
50702;BME280;36670;50.094;8.496;2023-07-20T06:53:09;100199.81;;;27.57;36.18
50702;BME280;36670;50.094;8.496;2023-07-20T06:55:35;100200.34;;;27.27;36.54
50702;BME280;36670;50.094;8.496;2023-07-20T06:58:00;100197.72;;;27.18;36.94
50702;BME280;36670;50.094;8.496;2023-07-20T07:00:25;100203.97;;;26.92;37.08
50702;BME280;36670;50.094;8.496;2023-07-20T07:02:51;100204.56;;;26.69;37.02
50702;BME280;36670;50.094;8.496;2023-07-20T07:05:16;100201.81;;;26.57;38.05
50702;BME280;36670;50.094;8.496;2023-07-20T07:07:41;100204.50;;;26.82;37.94
50702;BME280;36670;50.094;8.496;2023-07-20T07:10:07;100198.25;;;27.24;37.42
50702;BME280;36670;50.094;8.496;2023-07-20T07:12:33;100208.09;;;27.30;37.51
50702;BME280;36670;50.094;8.496;2023-07-20T07:14:59;100198.84;;;27.33;38.18
50702;BME280;36670;50.094;8.496;2023-07-20T07:17:25;100197.00;;;27.76;37.61
50702;BME280;36670;50.094;8.496;2023-07-20T07:19:52;100190.38;;;28.08;37.24
50702;BME280;36670;50.094;8.496;2023-07-20T07:22:20;100188.72;;;28.50;36.38
50702;BME280;36670;50.094;8.496;2023-07-20T07:24:46;100200.47;;;28.05;36.66
50702;BME280;36670;50.094;8.496;2023-07-20T07:27:11;100198.50;;;28.29;36.74
50702;BME280;36670;50.094;8.496;2023-07-20T07:29:37;100193.16;;;28.93;35.08
50702;BME280;36670;50.094;8.496;2023-07-20T07:32:02;100200.13;;;28.30;35.45
50702;BME280;36670;50.094;8.496;2023-07-20T07:34:28;100204.47;;;28.43;35.63
50702;BME280;36670;50.094;8.496;2023-07-20T07:36:53;100198.59;;;28.79;35.96
50702;BME280;36670;50.094;8.496;2023-07-20T07:39:19;100203.00;;;29.00;35.34
50702;BME280;36670;50.094;8.496;2023-07-20T07:41:44;100205.66;;;28.89;35.09
50702;BME280;36670;50.094;8.496;2023-07-20T07:44:09;100204.25;;;27.54;35.66
50702;BME280;36670;50.094;8.496;2023-07-20T07:46:34;100212.91;;;26.94;37.42
50702;BME280;36670;50.094;8.496;2023-07-20T07:49:00;100214.25;;;27.16;37.22
50702;BME280;36670;50.094;8.496;2023-07-20T07:51:25;100212.94;;;27.30;37.62
50702;BME280;36670;50.094;8.496;2023-07-20T07:53:52;100203.91;;;27.40;37.56
50702;BME280;36670;50.094;8.496;2023-07-20T07:56:17;100209.00;;;27.50;37.35
50702;BME280;36670;50.094;8.496;2023-07-20T07:58:46;100199.25;;;27.67;37.17
50702;BME280;36670;50.094;8.496;2023-07-20T08:01:11;100206.63;;;27.91;36.97
50702;BME280;36670;50.094;8.496;2023-07-20T08:03:37;100208.66;;;27.71;36.80
50702;BME280;36670;50.094;8.496;2023-07-20T08:06:02;100199.66;;;28.05;36.52
50702;BME280;36670;50.094;8.496;2023-07-20T08:08:31;100203.78;;;28.31;37.00
50702;BME280;36670;50.094;8.496;2023-07-20T08:10:59;100206.19;;;28.29;36.25
50702;BME280;36670;50.094;8.496;2023-07-20T08:13:26;100200.44;;;27.66;36.19
50702;BME280;36670;50.094;8.496;2023-07-20T08:15:52;100217.03;;;27.48;36.74
50702;BME280;36670;50.094;8.496;2023-07-20T08:18:18;100194.78;;;26.51;37.84
50702;BME280;36670;50.094;8.496;2023-07-20T08:20:44;100212.47;;;25.63;39.90
50702;BME280;36670;50.094;8.496;2023-07-20T08:23:10;100197.28;;;25.96;38.56
50702;BME280;36670;50.094;8.496;2023-07-20T08:25:36;100192.31;;;26.49;38.57
50702;BME280;36670;50.094;8.496;2023-07-20T08:28:04;100215.91;;;26.85;38.50
50702;BME280;36670;50.094;8.496;2023-07-20T08:30:43;100207.22;;;26.18;38.54
50702;BME280;36670;50.094;8.496;2023-07-20T08:33:09;100211.69;;;25.50;40.05
50702;BME280;36670;50.094;8.496;2023-07-20T08:35:35;100199.66;;;26.22;38.59
50702;BME280;36670;50.094;8.496;2023-07-20T08:38:00;100200.38;;;26.79;38.90
50702;BME280;36670;50.094;8.496;2023-07-20T08:40:26;100211.50;;;27.71;38.65
50702;BME280;36670;50.094;8.496;2023-07-20T08:42:52;100205.56;;;28.39;37.67
50702;BME280;36670;50.094;8.496;2023-07-20T08:45:20;100194.09;;;29.01;37.10
50702;BME280;36670;50.094;8.496;2023-07-20T08:47:48;100207.09;;;29.25;35.97
50702;BME280;36670;50.094;8.496;2023-07-20T08:50:14;100198.97;;;29.54;35.22
50702;BME280;36670;50.094;8.496;2023-07-20T08:52:41;100197.03;;;29.89;34.09
50702;BME280;36670;50.094;8.496;2023-07-20T08:55:06;100198.03;;;30.04;34.34
50702;BME280;36670;50.094;8.496;2023-07-20T08:57:33;100194.44;;;30.10;33.37
50702;BME280;36670;50.094;8.496;2023-07-20T09:00:00;100198.44;;;30.06;33.50
50702;BME280;36670;50.094;8.496;2023-07-20T09:02:30;100198.59;;;30.20;33.21
50702;BME280;36670;50.094;8.496;2023-07-20T09:05:00;100193.38;;;29.61;32.40
50702;BME280;36670;50.094;8.496;2023-07-20T09:07:25;100200.16;;;29.50;32.51
50702;BME280;36670;50.094;8.496;2023-07-20T09:09:51;100186.41;;;29.55;33.30
50702;BME280;36670;50.094;8.496;2023-07-20T09:12:16;100200.59;;;29.25;33.44
50702;BME280;36670;50.094;8.496;2023-07-20T09:14:45;100200.72;;;29.09;34.12
50702;BME280;36670;50.094;8.496;2023-07-20T09:17:14;100199.84;;;28.58;34.37
50702;BME280;36670;50.094;8.496;2023-07-20T09:19:47;100202.84;;;28.23;34.91
50702;BME280;36670;50.094;8.496;2023-07-20T09:22:13;100204.84;;;27.12;36.67
50702;BME280;36670;50.094;8.496;2023-07-20T09:24:38;100214.31;;;26.56;37.39
50702;BME280;36670;50.094;8.496;2023-07-20T09:27:04;100207.31;;;26.98;37.35
50702;BME280;36670;50.094;8.496;2023-07-20T09:29:29;100200.91;;;27.01;36.79
50702;BME280;36670;50.094;8.496;2023-07-20T09:32:02;100208.38;;;27.25;37.30
50702;BME280;36670;50.094;8.496;2023-07-20T09:34:29;100212.03;;;27.25;36.68
50702;BME280;36670;50.094;8.496;2023-07-20T09:36:57;100210.78;;;27.07;37.31
50702;BME280;36670;50.094;8.496;2023-07-20T09:39:22;100201.31;;;27.51;36.84
50702;BME280;36670;50.094;8.496;2023-07-20T09:41:48;100203.94;;;27.79;36.67
50702;BME280;36670;50.094;8.496;2023-07-20T09:44:16;100187.84;;;28.03;36.34
50702;BME280;36670;50.094;8.496;2023-07-20T09:46:46;100190.84;;;28.33;36.12
50702;BME280;36670;50.094;8.496;2023-07-20T09:49:12;100197.38;;;28.34;35.54
50702;BME280;36670;50.094;8.496;2023-07-20T09:51:38;100199.41;;;28.56;35.31
50702;BME280;36670;50.094;8.496;2023-07-20T09:54:04;100186.03;;;28.34;35.34
50702;BME280;36670;50.094;8.496;2023-07-20T09:56:30;100193.72;;;28.14;35.71
50702;BME280;36670;50.094;8.496;2023-07-20T09:58:56;100189.16;;;28.52;35.87
50702;BME280;36670;50.094;8.496;2023-07-20T10:01:23;100200.63;;;28.78;35.10
50702;BME280;36670;50.094;8.496;2023-07-20T10:03:53;100197.00;;;28.58;35.30
50702;BME280;36670;50.094;8.496;2023-07-20T10:06:23;100189.91;;;28.25;35.91
50702;BME280;36670;50.094;8.496;2023-07-20T10:08:52;100189.94;;;28.49;35.68
50702;BME280;36670;50.094;8.496;2023-07-20T10:11:18;100185.56;;;29.01;35.31
50702;BME280;36670;50.094;8.496;2023-07-20T10:13:51;100182.69;;;29.51;35.37
50702;BME280;36670;50.094;8.496;2023-07-20T10:16:50;100185.66;;;29.89;34.05
50702;BME280;36670;50.094;8.496;2023-07-20T10:19:34;100170.13;;;30.20;32.93
50702;BME280;36670;50.094;8.496;2023-07-20T10:22:11;100167.72;;;29.85;32.88
50702;BME280;36670;50.094;8.496;2023-07-20T10:24:38;100162.50;;;29.90;32.42
50702;BME280;36670;50.094;8.496;2023-07-20T10:27:05;100160.31;;;28.96;33.56
50702;BME280;36670;50.094;8.496;2023-07-20T10:29:31;100158.59;;;29.15;32.86
50702;BME280;36670;50.094;8.496;2023-07-20T10:31:57;100156.97;;;28.90;33.10
50702;BME280;36670;50.094;8.496;2023-07-20T10:34:23;100164.19;;;29.34;33.52
50702;BME280;36670;50.094;8.496;2023-07-20T10:36:49;100165.84;;;29.39;33.50
50702;BME280;36670;50.094;8.496;2023-07-20T10:39:28;100163.00;;;29.12;33.60
50702;BME280;36670;50.094;8.496;2023-07-20T10:42:09;100160.09;;;29.08;33.50
50702;BME280;36670;50.094;8.496;2023-07-20T10:44:37;100151.53;;;29.32;34.12
50702;BME280;36670;50.094;8.496;2023-07-20T10:47:09;100143.81;;;29.32;33.63
50702;BME280;36670;50.094;8.496;2023-07-20T10:49:35;100155.50;;;29.54;33.42
50702;BME280;36670;50.094;8.496;2023-07-20T10:52:04;100150.44;;;29.40;33.53
50702;BME280;36670;50.094;8.496;2023-07-20T10:56:57;100139.63;;;29.83;33.21
50702;BME280;36670;50.094;8.496;2023-07-20T11:01:48;100140.66;;;30.02;33.25
50702;BME280;36670;50.094;8.496;2023-07-20T11:04:17;100143.53;;;29.41;32.86
50702;BME280;36670;50.094;8.496;2023-07-20T11:06:44;100144.78;;;29.17;33.35
50702;BME280;36670;50.094;8.496;2023-07-20T11:09:13;100144.31;;;29.68;32.82
50702;BME280;36670;50.094;8.496;2023-07-20T11:11:42;100149.84;;;29.88;32.67
50702;BME280;36670;50.094;8.496;2023-07-20T11:14:21;100142.09;;;29.85;32.80
50702;BME280;36670;50.094;8.496;2023-07-20T11:16:47;100144.28;;;29.65;33.14
50702;BME280;36670;50.094;8.496;2023-07-20T11:19:23;100139.13;;;29.77;32.43
50702;BME280;36670;50.094;8.496;2023-07-20T11:21:58;100138.72;;;29.45;32.45
50702;BME280;36670;50.094;8.496;2023-07-20T11:24:24;100137.66;;;29.57;32.60
50702;BME280;36670;50.094;8.496;2023-07-20T11:26:51;100136.22;;;29.70;32.63
50702;BME280;36670;50.094;8.496;2023-07-20T11:29:18;100129.59;;;29.62;32.48
50702;BME280;36670;50.094;8.496;2023-07-20T11:31:45;100125.88;;;29.89;32.30
50702;BME280;36670;50.094;8.496;2023-07-20T11:34:15;100120.56;;;30.25;32.02
50702;BME280;36670;50.094;8.496;2023-07-20T11:36:42;100128.41;;;29.63;31.59
50702;BME280;36670;50.094;8.496;2023-07-20T11:39:12;100131.19;;;29.60;32.12
50702;BME280;36670;50.094;8.496;2023-07-20T11:41:38;100129.44;;;29.48;31.98
50702;BME280;36670;50.094;8.496;2023-07-20T11:44:05;100125.94;;;29.62;32.02
50702;BME280;36670;50.094;8.496;2023-07-20T11:46:39;100126.63;;;29.52;31.91
50702;BME280;36670;50.094;8.496;2023-07-20T11:49:05;100119.78;;;29.56;31.95
50702;BME280;36670;50.094;8.496;2023-07-20T11:51:30;100122.25;;;29.58;32.24
50702;BME280;36670;50.094;8.496;2023-07-20T11:53:57;100122.47;;;29.79;31.70
50702;BME280;36670;50.094;8.496;2023-07-20T11:56:24;100113.25;;;29.86;31.52
50702;BME280;36670;50.094;8.496;2023-07-20T11:58:50;100114.47;;;29.55;32.04
50702;BME280;36670;50.094;8.496;2023-07-20T12:01:17;100119.56;;;29.72;31.57
50702;BME280;36670;50.094;8.496;2023-07-20T12:03:43;100112.38;;;30.20;31.44
50702;BME280;36670;50.094;8.496;2023-07-20T12:06:09;100101.72;;;30.09;31.38
50702;BME280;36670;50.094;8.496;2023-07-20T12:08:38;100092.78;;;30.14;31.36
50702;BME280;36670;50.094;8.496;2023-07-20T12:11:04;100098.09;;;30.57;31.04
50702;BME280;36670;50.094;8.496;2023-07-20T12:13:43;100096.25;;;30.38;30.87
50702;BME280;36670;50.094;8.496;2023-07-20T12:16:15;100092.56;;;30.30;30.76
50702;BME280;36670;50.094;8.496;2023-07-20T12:18:42;100092.41;;;30.57;30.61
50702;BME280;36670;50.094;8.496;2023-07-20T12:21:08;100086.69;;;30.57;30.53
50702;BME280;36670;50.094;8.496;2023-07-20T12:23:39;100086.34;;;30.18;30.99
50702;BME280;36670;50.094;8.496;2023-07-20T12:26:11;100089.72;;;30.34;31.17
50702;BME280;36670;50.094;8.496;2023-07-20T12:28:40;100088.28;;;30.55;31.12
50702;BME280;36670;50.094;8.496;2023-07-20T12:31:07;100092.88;;;30.67;30.48
50702;BME280;36670;50.094;8.496;2023-07-20T12:33:32;100088.88;;;30.78;30.74
50702;BME280;36670;50.094;8.496;2023-07-20T12:35:57;100092.03;;;30.62;29.63
50702;BME280;36670;50.094;8.496;2023-07-20T12:38:24;100078.50;;;30.52;29.84
50702;BME280;36670;50.094;8.496;2023-07-20T12:40:50;100075.72;;;31.15;29.32
50702;BME280;36670;50.094;8.496;2023-07-20T12:43:16;100072.94;;;31.37;29.71
50702;BME280;36670;50.094;8.496;2023-07-20T12:45:41;100073.28;;;31.17;29.14
50702;BME280;36670;50.094;8.496;2023-07-20T12:48:07;100071.75;;;31.45;28.80
50702;BME280;36670;50.094;8.496;2023-07-20T12:50:32;100064.22;;;32.10;28.87
50702;BME280;36670;50.094;8.496;2023-07-20T12:52:58;100069.78;;;31.53;27.41
50702;BME280;36670;50.094;8.496;2023-07-20T12:55:23;100071.38;;;31.50;28.60
50702;BME280;36670;50.094;8.496;2023-07-20T12:57:48;100061.28;;;31.67;28.82
50702;BME280;36670;50.094;8.496;2023-07-20T13:00:14;100058.69;;;31.37;27.96